createdAt,value
2023-01-23T00:01:13.739Z,101379.69
2023-01-23T00:04:20.518Z,101389.34
2023-01-23T00:07:27.465Z,101379.59
2023-01-23T00:10:33.722Z,101371.50
2023-01-23T00:13:40.275Z,101368.28
2023-01-23T00:16:48.991Z,101365.59
2023-01-23T00:19:56.455Z,101350.56
2023-01-23T00:23:01.969Z,101356.63
2023-01-23T00:26:10.316Z,101348.53
2023-01-23T00:29:17.222Z,101346.75
2023-01-23T00:32:24.704Z,101352.97
2023-01-23T00:35:32.740Z,101349.63
2023-01-23T00:38:38.988Z,101362.09
2023-01-23T00:41:47.297Z,101366.56
2023-01-23T00:44:54.834Z,101367.50
2023-01-23T00:48:01.405Z,101361.91
2023-01-23T00:51:07.805Z,101364.78
2023-01-23T00:54:13.375Z,101355.63
2023-01-23T00:57:20.083Z,101358.53
2023-01-23T01:00:28.039Z,101360.75
2023-01-23T01:03:34.231Z,101370.88
2023-01-23T01:06:40.856Z,101366.06
2023-01-23T01:09:49.979Z,101373.44
2023-01-23T01:13:01.178Z,101359.37
2023-01-23T01:16:11.506Z,101365.16
2023-01-23T01:19:18.334Z,101367.81
2023-01-23T01:22:26.272Z,101365.19
2023-01-23T01:25:35.157Z,101367.19
2023-01-23T01:28:41.502Z,101349.97
2023-01-23T01:31:48.648Z,101346.44
2023-01-23T01:34:56.338Z,101341.50
2023-01-23T01:38:05.053Z,101348.22
2023-01-23T01:41:13.377Z,101348.63
2023-01-23T01:44:23.008Z,101338.59
2023-01-23T01:47:30.516Z,101343.50
2023-01-23T01:50:36.595Z,101338.00
2023-01-23T01:53:43.850Z,101341.63
2023-01-23T01:57:09.199Z,101353.69
2023-01-23T02:00:19.521Z,101344.06
2023-01-23T02:03:32.199Z,101350.22
2023-01-23T02:06:37.834Z,101352.09
2023-01-23T02:09:48.299Z,101357.38
2023-01-23T02:12:54.894Z,101346.16
2023-01-23T02:16:05.971Z,101343.44
2023-01-23T02:19:27.954Z,101339.34
2023-01-23T02:22:40.160Z,101341.31
2023-01-23T02:25:46.512Z,101337.41
2023-01-23T02:28:55.794Z,101328.59
2023-01-23T02:32:04.908Z,101328.16
2023-01-23T02:35:17.392Z,101332.19
2023-01-23T02:38:31.812Z,101338.69
2023-01-23T02:41:41.143Z,101326.16
2023-01-23T02:44:48.388Z,101333.03
2023-01-23T02:48:00.584Z,101320.09
2023-01-23T02:51:07.210Z,101331.78
2023-01-23T02:54:14.646Z,101321.31
2023-01-23T02:57:21.288Z,101319.81
2023-01-23T03:00:29.343Z,101324.87
2023-01-23T03:03:35.233Z,101317.88
2023-01-23T03:06:41.673Z,101297.28
2023-01-23T03:09:50.720Z,101304.56
2023-01-23T03:13:03.110Z,101292.31
2023-01-23T03:16:11.843Z,101284.25
2023-01-23T03:19:18.904Z,101277.06
2023-01-23T03:22:24.615Z,101284.53
2023-01-23T03:25:32.146Z,101281.47
2023-01-23T03:29:00.150Z,101283.97
2023-01-23T03:32:07.761Z,101286.56
2023-01-23T03:35:18.057Z,101287.63
2023-01-23T03:38:24.561Z,101291.47
2023-01-23T03:41:31.388Z,101290.34
2023-01-23T03:44:37.830Z,101286.88
2023-01-23T03:47:45.301Z,101282.75
2023-01-23T03:50:56.988Z,101279.50
2023-01-23T03:54:03.511Z,101273.16
2023-01-23T03:57:10.553Z,101290.34
2023-01-23T04:00:23.825Z,101285.19
2023-01-23T04:03:32.112Z,101283.97
2023-01-23T04:06:38.199Z,101286.12
2023-01-23T04:09:49.893Z,101281.88
2023-01-23T04:12:58.607Z,101283.84
2023-01-23T04:16:07.310Z,101282.66
2023-01-23T04:19:13.824Z,101282.97
2023-01-23T04:22:21.673Z,101280.75
2023-01-23T04:25:31.053Z,101283.22
2023-01-23T04:28:38.880Z,101295.22
2023-01-23T04:31:49.263Z,101287.56
2023-01-23T04:34:56.336Z,101291.25
2023-01-23T04:38:04.426Z,101298.84
2023-01-23T04:41:15.431Z,101287.03
2023-01-23T04:44:23.025Z,101278.56
2023-01-23T04:47:33.349Z,101288.22
2023-01-23T04:50:40.979Z,101287.47
2023-01-23T04:53:52.768Z,101291.41
2023-01-23T04:56:58.329Z,101297.13
2023-01-23T05:00:06.082Z,101289.69
2023-01-23T05:03:12.468Z,101302.66
2023-01-23T05:06:21.421Z,101297.63
2023-01-23T05:09:28.525Z,101297.94
2023-01-23T05:12:36.389Z,101310.09
2023-01-23T05:15:43.450Z,101315.66
2023-01-23T05:18:51.783Z,101314.38
2023-01-23T05:22:00.917Z,101312.75
2023-01-23T05:25:09.807Z,101317.72
2023-01-23T05:28:16.531Z,101324.00
2023-01-23T05:31:28.114Z,101322.94
2023-01-23T05:34:37.787Z,101320.72
2023-01-23T05:37:44.575Z,101319.00
2023-01-23T05:40:52.806Z,101317.22
2023-01-23T05:44:00.594Z,101320.25
2023-01-23T05:47:06.230Z,101327.16
2023-01-23T05:50:16.319Z,101316.78
2023-01-23T05:53:21.423Z,101322.28
2023-01-23T05:56:27.445Z,101316.78
2023-01-23T05:59:36.702Z,101328.47
2023-01-23T06:02:44.159Z,101329.09
2023-01-23T06:05:52.133Z,101335.63
2023-01-23T06:08:56.681Z,101345.84
2023-01-23T06:12:02.183Z,101339.59
2023-01-23T06:15:08.103Z,101352.59
2023-01-23T06:18:13.027Z,101353.88
2023-01-23T06:21:19.363Z,101357.69
2023-01-23T06:24:24.312Z,101367.59
2023-01-23T06:27:28.451Z,101375.31
2023-01-23T06:30:33.502Z,101383.28
2023-01-23T06:33:38.982Z,101381.06
2023-01-23T06:36:44.422Z,101391.12
2023-01-23T06:39:49.409Z,101395.25
2023-01-23T06:42:57.385Z,101392.72
2023-01-23T06:46:02.491Z,101400.28
2023-01-23T06:49:06.998Z,101400.53
2023-01-23T06:52:10.983Z,101407.56
2023-01-23T06:55:14.968Z,101407.47
2023-01-23T06:58:19.907Z,101413.88
2023-01-23T07:01:25.162Z,101404.69
2023-01-23T07:04:32.763Z,101391.84
2023-01-23T07:07:36.654Z,101407.84
2023-01-23T07:10:40.987Z,101402.06
2023-01-23T07:13:45.826Z,101407.91
2023-01-23T07:16:50.930Z,101408.09
2023-01-23T07:19:55.010Z,101424.38
2023-01-23T07:22:58.864Z,101431.84
2023-01-23T07:26:04.444Z,101424.50
2023-01-23T07:29:09.329Z,101434.09
2023-01-23T07:32:13.147Z,101438.81
2023-01-23T07:35:16.986Z,101437.00
2023-01-23T07:38:21.199Z,101435.62
2023-01-23T07:41:27.316Z,101447.00
2023-01-23T07:44:30.857Z,101445.06
2023-01-23T07:47:34.578Z,101441.69
2023-01-23T07:50:38.895Z,101447.78
2023-01-23T07:53:43.118Z,101439.06
2023-01-23T07:56:48.963Z,101439.59
2023-01-23T07:59:53.996Z,101434.75
2023-01-23T08:03:02.481Z,101444.94
2023-01-23T08:06:06.110Z,101441.56
2023-01-23T08:09:09.459Z,101451.75
2023-01-23T08:12:13.492Z,101448.03
2023-01-23T08:15:18.437Z,101447.00
2023-01-23T08:18:24.854Z,101446.25
2023-01-23T08:21:28.931Z,101449.31
2023-01-23T08:24:33.611Z,101436.16
2023-01-23T08:27:37.519Z,101443.09
2023-01-23T08:30:43.826Z,101438.84
2023-01-23T08:33:48.079Z,101446.31
2023-01-23T08:36:52.193Z,101453.00
2023-01-23T08:39:55.095Z,101459.28
2023-01-23T08:42:58.859Z,101451.84
2023-01-23T08:46:03.488Z,101456.28
2023-01-23T08:49:07.052Z,101449.91
2023-01-23T08:52:10.658Z,101455.44
2023-01-23T08:55:17.911Z,101461.47
2023-01-23T08:58:23.592Z,101455.03
2023-01-23T09:01:29.357Z,101454.84
2023-01-23T09:04:33.660Z,101450.53
2023-01-23T09:07:38.490Z,101460.72
2023-01-23T09:10:43.494Z,101454.91
2023-01-23T09:13:48.936Z,101454.91
2023-01-23T09:16:54.341Z,101452.41
2023-01-23T09:20:01.023Z,101460.22
2023-01-23T09:23:06.734Z,101458.91
2023-01-23T09:26:13.353Z,101457.97
2023-01-23T09:29:16.974Z,101466.22
2023-01-23T09:32:21.283Z,101460.16
2023-01-23T09:35:25.158Z,101449.12
2023-01-23T09:38:29.123Z,101455.97
2023-01-23T09:41:33.665Z,101445.41
2023-01-23T09:44:42.841Z,101453.34
2023-01-23T09:47:50.398Z,101448.78
2023-01-23T09:50:57.365Z,101448.03
2023-01-23T09:54:20.643Z,101451.16
2023-01-23T09:57:33.706Z,101453.75
2023-01-23T10:00:37.854Z,101451.56
2023-01-23T10:03:45.251Z,101441.72
2023-01-23T10:07:02.642Z,101441.97
2023-01-23T10:10:07.240Z,101448.38
2023-01-23T10:13:30.214Z,101448.25
2023-01-23T10:16:50.300Z,101447.94
2023-01-23T10:20:30.965Z,101447.91
2023-01-23T10:23:47.072Z,101452.91
2023-01-23T10:26:51.774Z,101447.06
2023-01-23T10:29:59.529Z,101451.72
2023-01-23T10:33:10.402Z,101445.59
2023-01-23T10:36:41.966Z,101447.50
2023-01-23T10:39:54.830Z,101445.81
2023-01-23T10:43:02.867Z,101445.47
2023-01-23T10:46:21.509Z,101441.13
2023-01-23T10:49:30.650Z,101430.00
2023-01-23T10:52:37.209Z,101429.06
2023-01-23T10:55:45.801Z,101433.81
2023-01-23T10:58:49.730Z,101429.50
2023-01-23T11:01:57.988Z,101426.47
2023-01-23T11:05:01.884Z,101420.78
2023-01-23T11:08:28.607Z,101419.56
2023-01-23T11:11:34.247Z,101412.19
2023-01-23T11:14:41.103Z,101411.62
2023-01-23T11:17:45.206Z,101419.59
2023-01-23T11:20:55.880Z,101429.22
2023-01-23T11:24:10.067Z,101412.25
2023-01-23T11:27:14.217Z,101396.88
2023-01-23T11:30:33.485Z,101398.69
2023-01-23T11:33:37.308Z,101400.22
2023-01-23T11:37:04.645Z,101394.34
2023-01-23T11:40:08.836Z,101400.31
2023-01-23T11:43:14.891Z,101401.81
2023-01-23T11:46:30.778Z,101392.87
2023-01-23T11:49:52.224Z,101393.06
2023-01-23T11:53:30.503Z,101385.97
2023-01-23T11:56:45.977Z,101383.69
2023-01-23T12:00:08.011Z,101386.59
2023-01-23T12:03:47.984Z,101381.66
2023-01-23T12:07:02.985Z,101384.84
2023-01-23T12:10:25.961Z,101384.72
2023-01-23T12:13:29.883Z,101394.03
2023-01-23T12:16:40.621Z,101388.28
2023-01-23T12:19:48.467Z,101394.50
2023-01-23T12:23:11.296Z,101391.84
2023-01-23T12:26:15.001Z,101389.53
2023-01-23T12:29:38.034Z,101385.56
2023-01-23T12:33:01.618Z,101386.13
2023-01-23T12:36:16.870Z,101374.12
2023-01-23T12:39:39.287Z,101377.00
2023-01-23T12:42:42.119Z,101375.25
2023-01-23T12:45:52.820Z,101385.28
2023-01-23T12:49:05.116Z,101381.41
2023-01-23T12:52:18.513Z,101389.66
2023-01-23T12:55:24.587Z,101369.59
2023-01-23T12:58:29.475Z,101376.72
2023-01-23T13:02:11.434Z,101384.25
2023-01-23T13:05:21.593Z,101380.13
2023-01-23T13:08:40.542Z,101389.63
2023-01-23T13:11:57.414Z,101387.75
2023-01-23T13:15:39.143Z,101390.16
2023-01-23T13:19:31.459Z,101392.72
2023-01-23T13:22:38.749Z,101396.53
2023-01-23T13:25:45.185Z,101391.50
2023-01-23T13:28:55.726Z,101393.63
2023-01-23T13:32:23.344Z,101394.53
2023-01-23T13:35:49.699Z,101393.00
2023-01-23T13:39:05.669Z,101400.09
2023-01-23T13:42:12.545Z,101401.84
2023-01-23T13:45:16.769Z,101403.56
2023-01-23T14:23:39.136Z,101400.78
2023-01-23T14:26:49.023Z,101411.50
2023-01-23T14:29:59.978Z,101408.59
2023-01-23T14:33:11.578Z,101406.91
2023-01-23T14:36:17.657Z,101417.38
2023-01-23T14:39:23.412Z,101408.28
2023-01-23T14:42:30.217Z,101401.72
2023-01-23T14:45:36.007Z,101408.56
2023-01-23T14:48:42.889Z,101412.47
2023-01-23T14:52:08.659Z,101411.88
2023-01-23T14:55:32.739Z,101412.72
2023-01-23T14:58:39.663Z,101423.41
2023-01-23T15:01:53.626Z,101422.16
2023-01-23T15:05:10.670Z,101422.12
2023-01-23T15:08:21.681Z,101427.47
2023-01-23T15:11:27.648Z,101426.03
2023-01-23T15:14:36.472Z,101431.69
2023-01-23T15:17:44.818Z,101431.94
2023-01-23T15:20:54.946Z,101433.69
2023-01-23T15:24:05.154Z,101437.59
2023-01-23T15:27:39.083Z,101424.75
2023-01-23T15:30:46.355Z,101425.19
2023-01-23T15:33:50.644Z,101424.22
2023-01-23T15:36:56.097Z,101439.50
2023-01-23T15:40:03.380Z,101442.69
2023-01-23T15:43:12.755Z,101446.91
2023-01-23T15:46:22.186Z,101446.78
2023-01-23T15:49:26.678Z,101453.47
2023-01-23T15:52:47.486Z,101447.28
2023-01-23T15:55:51.859Z,101450.81
2023-01-23T15:58:56.497Z,101450.25
2023-01-23T16:02:02.028Z,101450.44
2023-01-23T16:05:10.351Z,101451.59
2023-01-23T16:08:23.255Z,101450.59
2023-01-23T16:11:31.091Z,101455.09
2023-01-23T16:14:35.536Z,101453.41
2023-01-23T16:17:46.612Z,101458.44
2023-01-23T16:20:56.056Z,101458.78
2023-01-23T16:24:02.335Z,101460.22
2023-01-23T16:27:11.215Z,101468.31
2023-01-23T16:30:32.781Z,101469.84
2023-01-23T16:33:38.071Z,101459.50
2023-01-23T16:36:43.943Z,101467.78
2023-01-23T16:39:50.547Z,101471.72
2023-01-23T16:42:58.736Z,101478.56
2023-01-23T16:46:05.132Z,101475.22
2023-01-23T16:49:10.458Z,101472.09
2023-01-23T16:52:16.883Z,101474.75
2023-01-23T16:55:23.848Z,101477.97
2023-01-23T16:58:30.458Z,101482.88
2023-01-23T17:01:40.141Z,101492.41
2023-01-23T17:04:45.878Z,101497.59
2023-01-23T17:07:52.537Z,101495.94
2023-01-23T17:11:01.561Z,101496.06
2023-01-23T17:14:12.606Z,101495.13
2023-01-23T17:17:21.365Z,101500.94
2023-01-23T17:20:31.165Z,101506.59
2023-01-23T17:23:37.743Z,101505.78
2023-01-23T17:26:47.837Z,101506.84
2023-01-23T17:29:54.415Z,101515.03
2023-01-23T17:33:00.219Z,101504.22
2023-01-23T17:36:08.722Z,101502.19
2023-01-23T17:39:15.535Z,101509.66
2023-01-23T17:42:23.077Z,101514.59
2023-01-23T17:45:30.772Z,101510.53
2023-01-23T17:48:39.660Z,101517.97
2023-01-23T17:51:47.874Z,101516.53
2023-01-23T17:54:52.338Z,101520.41
2023-01-23T17:57:57.763Z,101525.31
2023-01-23T18:01:01.904Z,101525.22
2023-01-23T18:04:22.072Z,101525.56
2023-01-23T18:07:26.844Z,101533.72
2023-01-23T18:10:37.356Z,101519.31
2023-01-23T18:13:57.889Z,101524.00
2023-01-23T18:17:16.634Z,101531.78
2023-01-23T18:20:23.032Z,101525.53
2023-01-23T18:23:32.107Z,101530.22
2023-01-23T18:27:00.304Z,101533.84
2023-01-23T18:30:13.372Z,101526.66
2023-01-23T18:33:25.818Z,101529.41
2023-01-23T18:36:34.273Z,101533.84
2023-01-23T18:39:58.947Z,101520.16
2023-01-23T18:43:18.711Z,101524.25
2023-01-23T18:46:26.628Z,101520.88
2023-01-23T18:49:37.208Z,101527.22
2023-01-23T18:53:06.562Z,101522.78
2023-01-23T18:56:24.053Z,101519.78
2023-01-23T18:59:36.221Z,101527.00
2023-01-23T19:02:53.178Z,101525.22
2023-01-23T19:06:00.107Z,101526.78
2023-01-23T19:09:08.048Z,101530.00
2023-01-23T19:12:24.065Z,101535.91
2023-01-23T19:15:51.059Z,101535.66
2023-01-23T19:19:25.347Z,101542.16
2023-01-23T19:22:42.225Z,101554.22
2023-01-23T19:25:50.765Z,101549.66
2023-01-23T19:28:59.889Z,101544.94
2023-01-23T19:32:09.903Z,101547.44
2023-01-23T19:35:18.542Z,101553.78
2023-01-23T19:38:24.363Z,101556.09
2023-01-23T19:41:39.031Z,101560.50
2023-01-23T19:44:45.827Z,101557.94
2023-01-23T19:47:52.112Z,101551.00
2023-01-23T19:50:58.166Z,101553.88
2023-01-23T19:54:11.004Z,101561.44
2023-01-23T19:57:16.463Z,101563.47
2023-01-23T20:00:24.499Z,101550.72
2023-01-23T20:03:32.899Z,101564.63
2023-01-23T20:06:43.896Z,101570.53
2023-01-23T20:09:50.559Z,101572.13
2023-01-23T20:12:56.861Z,101569.84
2023-01-23T20:16:10.690Z,101573.69
2023-01-23T20:19:16.303Z,101578.59
2023-01-23T20:22:21.675Z,101585.63
2023-01-23T20:25:27.798Z,101587.00
2023-01-23T20:28:34.072Z,101589.69
2023-01-23T20:31:39.973Z,101592.00
2023-01-23T20:34:45.565Z,101594.19
2023-01-23T20:37:51.038Z,101602.00
2023-01-23T20:41:07.771Z,101591.16
2023-01-23T20:44:13.557Z,101594.97
2023-01-23T20:47:18.325Z,101603.16
2023-01-23T20:50:26.186Z,101602.97
2023-01-23T20:53:33.480Z,101608.94
2023-01-23T20:56:40.811Z,101618.22
2023-01-23T20:59:50.018Z,101619.87
2023-01-23T21:02:58.383Z,101622.84
2023-01-23T21:06:06.137Z,101616.09
2023-01-23T21:09:12.477Z,101623.56
2023-01-23T21:12:20.378Z,101628.97
2023-01-23T21:15:25.969Z,101631.78
2023-01-23T21:18:33.544Z,101628.53
2023-01-23T21:21:40.880Z,101639.87
2023-01-23T21:24:51.105Z,101636.94
2023-01-23T21:27:56.625Z,101636.84
2023-01-23T21:31:09.169Z,101643.69
2023-01-23T21:34:18.197Z,101654.34
2023-01-23T21:37:25.659Z,101654.34
2023-01-23T21:40:31.663Z,101655.19
2023-01-23T21:43:39.817Z,101663.91
2023-01-23T21:46:47.821Z,101659.69
2023-01-23T21:49:55.685Z,101658.75
2023-01-23T21:53:04.479Z,101656.87
2023-01-23T21:56:11.909Z,101666.78
2023-01-23T21:59:16.928Z,101660.03
2023-01-23T22:02:22.754Z,101661.19
2023-01-23T22:05:27.735Z,101666.34
2023-01-23T22:08:32.845Z,101662.03
2023-01-23T22:11:41.684Z,101663.38
2023-01-23T22:14:47.814Z,101662.75
2023-01-23T22:17:55.803Z,101658.44
2023-01-23T22:21:02.763Z,101665.72
2023-01-23T22:24:13.748Z,101670.53
2023-01-23T22:27:19.354Z,101663.16
2023-01-23T22:30:28.620Z,101670.63
2023-01-23T22:33:40.487Z,101678.09
2023-01-23T22:36:48.141Z,101681.53
2023-01-23T22:39:53.651Z,101685.94
2023-01-23T22:42:59.426Z,101690.34
2023-01-23T22:46:07.429Z,101687.19
2023-01-23T22:49:12.763Z,101697.16
2023-01-23T22:52:18.668Z,101700.94
2023-01-23T22:55:24.970Z,101701.41
2023-01-23T22:58:31.124Z,101699.91
2023-01-23T23:01:39.023Z,101708.19
2023-01-23T23:04:44.425Z,101712.53
2023-01-23T23:07:50.857Z,101720.09
2023-01-23T23:10:59.678Z,101724.22
2023-01-23T23:14:07.897Z,101728.72
2023-01-23T23:17:13.747Z,101719.94
2023-01-23T23:20:21.543Z,101730.97
2023-01-23T23:23:27.324Z,101720.19
2023-01-23T23:26:34.080Z,101720.75
2023-01-23T23:29:40.229Z,101722.19
2023-01-23T23:32:46.507Z,101721.63
2023-01-23T23:35:56.490Z,101725.94
2023-01-23T23:39:03.692Z,101727.00
2023-01-23T23:42:08.590Z,101720.97
2023-01-23T23:45:16.689Z,101722.13
2023-01-23T23:48:22.640Z,101731.69
2023-01-23T23:51:28.743Z,101727.16
2023-01-23T23:54:35.444Z,101722.22
2023-01-23T23:57:43.329Z,101717.81
